createdAt,value
2018-12-29T00:01:42.543Z,42.97
2018-12-29T00:04:16.668Z,48.60
2018-12-29T00:06:49.661Z,50.27
2018-12-29T00:09:22.725Z,48.00
2018-12-29T00:11:55.814Z,48.13
2018-12-29T00:14:28.862Z,45.10
2018-12-29T00:17:01.477Z,45.40
2018-12-29T00:19:34.450Z,51.33
2018-12-29T00:22:08.503Z,53.47
2018-12-29T00:24:53.520Z,43.90
2018-12-29T00:27:44.272Z,43.87
2018-12-29T00:30:21.391Z,45.67
2018-12-29T00:32:54.270Z,46.87
2018-12-29T00:35:26.967Z,50.43
2018-12-29T00:37:59.945Z,48.40
2018-12-29T00:40:32.979Z,41.50
2018-12-29T00:43:06.905Z,50.80
2018-12-29T00:45:39.440Z,47.13
2018-12-29T00:48:12.112Z,49.13
2018-12-29T00:50:59.938Z,44.80
2018-12-29T00:53:32.796Z,45.13
2018-12-29T00:56:05.908Z,51.93
2018-12-29T00:58:38.780Z,39.47
2018-12-29T01:01:12.377Z,48.17
2018-12-29T01:03:44.995Z,46.80
2018-12-29T01:06:19.843Z,48.90
2018-12-29T01:08:56.854Z,51.13
2018-12-29T01:11:29.735Z,41.50
2018-12-29T01:14:02.492Z,53.80
2018-12-29T01:16:35.121Z,50.13
2018-12-29T01:19:14.093Z,48.03
2018-12-29T01:21:50.300Z,51.80
2018-12-29T01:24:23.298Z,48.57
2018-12-29T01:27:00.616Z,55.43
2018-12-29T01:29:34.289Z,51.33
2018-12-29T01:32:07.022Z,48.90
2018-12-29T01:34:41.007Z,48.33
2018-12-29T01:40:07.103Z,49.97
2018-12-29T01:42:40.089Z,49.13
2018-12-29T01:45:19.150Z,53.30
2018-12-29T01:47:53.817Z,49.90
2018-12-29T01:50:27.970Z,47.20
2018-12-29T01:53:03.356Z,49.20
2018-12-29T01:55:43.056Z,55.50
2018-12-29T01:58:15.979Z,57.43
2018-12-29T02:00:48.711Z,53.70
2018-12-29T02:03:22.116Z,51.47
2018-12-29T02:05:55.562Z,52.60
2018-12-29T02:08:31.414Z,50.70
2018-12-29T02:11:05.596Z,52.27
2018-12-29T02:13:38.271Z,51.90
2018-12-29T02:16:11.638Z,52.33
2018-12-29T02:18:48.979Z,53.33
2018-12-29T02:21:21.830Z,49.20
2018-12-29T02:23:54.689Z,49.17
2018-12-29T02:26:27.766Z,51.17
2018-12-29T02:29:01.324Z,45.90
2018-12-29T02:31:34.486Z,45.60
2018-12-29T02:34:07.736Z,52.00
2018-12-29T02:36:41.237Z,51.10
2018-12-29T02:39:13.835Z,52.80
2018-12-29T02:41:48.607Z,53.00
2018-12-29T02:44:25.475Z,51.37
2018-12-29T02:46:58.135Z,54.00
2018-12-29T02:49:36.845Z,49.90
2018-12-29T02:52:09.563Z,50.37
2018-12-29T02:54:42.188Z,48.23
2018-12-29T02:57:18.427Z,48.37
2018-12-29T02:59:50.928Z,50.83
2018-12-29T03:02:24.446Z,53.50
2018-12-29T03:04:57.418Z,58.03
2018-12-29T03:07:30.398Z,52.53
2018-12-29T03:10:03.434Z,54.30
2018-12-29T03:12:36.083Z,58.00
2018-12-29T03:15:08.953Z,56.17
2018-12-29T03:17:42.145Z,54.37
2018-12-29T03:20:16.831Z,54.87
2018-12-29T03:22:53.434Z,46.87
2018-12-29T03:25:26.618Z,55.53
2018-12-29T03:28:01.036Z,54.13
2018-12-29T03:30:33.651Z,57.33
2018-12-29T03:33:10.596Z,58.27
2018-12-29T03:35:43.710Z,54.30
2018-12-29T03:38:17.007Z,54.67
2018-12-29T03:40:49.796Z,49.93
2018-12-29T03:43:21.150Z,55.13
2018-12-29T03:45:53.825Z,51.60
2018-12-29T03:48:26.853Z,56.17
2018-12-29T03:51:06.266Z,53.20
2018-12-29T03:53:39.312Z,51.50
2018-12-29T03:56:12.057Z,48.93
2018-12-29T03:58:45.080Z,49.93
2018-12-29T04:01:18.193Z,51.77
2018-12-29T04:03:51.092Z,51.93
2018-12-29T04:06:23.531Z,50.90
2018-12-29T04:10:01.104Z,50.90
2018-12-29T04:12:39.895Z,49.97
2018-12-29T04:15:15.203Z,52.87
2018-12-29T04:17:47.567Z,56.50
2018-12-29T04:20:21.204Z,46.77
2018-12-29T04:22:53.666Z,50.60
2018-12-29T04:25:27.766Z,53.83
2018-12-29T04:28:01.237Z,50.20
2018-12-29T04:30:34.267Z,51.57
2018-12-29T04:33:08.224Z,48.53
2018-12-29T04:35:41.388Z,51.80
2018-12-29T04:38:14.770Z,50.50
2018-12-29T04:40:47.634Z,50.73
2018-12-29T04:43:20.689Z,47.50
2018-12-29T04:45:54.394Z,49.97
2018-12-29T04:48:27.332Z,46.87
2018-12-29T04:51:00.736Z,50.00
2018-12-29T04:53:34.733Z,46.20
2018-12-29T04:56:12.976Z,46.37
2018-12-29T04:58:49.930Z,45.87
2018-12-29T05:01:22.319Z,44.80
2018-12-29T05:03:55.143Z,38.57
2018-12-29T05:06:28.458Z,44.93
2018-12-29T05:09:08.869Z,46.93
2018-12-29T05:11:41.991Z,44.70
2018-12-29T05:14:14.886Z,43.70
2018-12-29T05:16:47.166Z,45.40
2018-12-29T05:19:20.596Z,44.20
2018-12-29T05:22:00.604Z,48.17
2018-12-29T05:24:33.866Z,45.23
2018-12-29T05:27:06.948Z,46.73
2018-12-29T05:29:43.878Z,47.07
2018-12-29T05:32:17.093Z,47.57
2018-12-29T05:34:50.092Z,48.40
2018-12-29T05:37:27.348Z,48.57
2018-12-29T05:40:00.371Z,45.50
2018-12-29T05:42:33.545Z,44.73
2018-12-29T05:45:07.087Z,46.13
2018-12-29T05:47:40.241Z,46.90
2018-12-29T05:50:13.374Z,48.57
2018-12-29T05:52:46.203Z,43.10
2018-12-29T05:55:20.014Z,45.57
2018-12-29T05:58:17.394Z,42.73
2018-12-29T06:00:50.703Z,41.17
2018-12-29T06:03:23.454Z,48.97
2018-12-29T06:05:56.696Z,46.60
2018-12-29T06:08:29.554Z,42.50
2018-12-29T06:11:02.609Z,46.10
2018-12-29T06:13:35.517Z,43.40
2018-12-29T06:16:08.898Z,49.63
2018-12-29T06:21:23.032Z,52.07
2018-12-29T06:23:57.010Z,49.37
2018-12-29T06:26:29.976Z,46.87
2018-12-29T06:29:04.174Z,52.17
2018-12-29T06:31:46.204Z,48.97
2018-12-29T06:34:22.986Z,43.33
2018-12-29T06:36:56.304Z,47.83
2018-12-29T06:39:29.585Z,52.60
2018-12-29T06:42:04.352Z,49.37
2018-12-29T06:44:40.098Z,48.30
2018-12-29T06:47:12.778Z,43.63
2018-12-29T07:04:18.844Z,49.60
2018-12-29T07:06:51.431Z,48.07
2018-12-29T07:09:29.466Z,55.60
2018-12-29T07:12:02.502Z,50.30
2018-12-29T07:14:36.770Z,51.97
2018-12-29T07:17:17.296Z,49.67
2018-12-29T07:19:54.434Z,47.70
2018-12-29T07:22:39.541Z,54.97
2018-12-29T07:25:17.970Z,50.07
2018-12-29T07:27:51.329Z,52.60
2018-12-29T07:30:25.257Z,54.07
2018-12-29T07:33:00.258Z,56.20
2018-12-29T07:35:38.777Z,48.60
2018-12-29T07:38:12.776Z,51.43
2018-12-29T07:40:46.296Z,53.30
2018-12-29T07:43:24.373Z,49.00
2018-12-29T07:46:04.223Z,56.33
2018-12-29T07:48:37.381Z,53.03
2018-12-29T07:51:11.193Z,48.07
2018-12-29T07:53:44.785Z,52.87
2018-12-29T07:56:17.528Z,57.27
2018-12-29T07:58:50.662Z,51.37
2018-12-29T08:01:23.790Z,55.57
2018-12-29T08:03:56.195Z,52.10
2018-12-29T08:06:29.355Z,43.80
2018-12-29T08:11:39.869Z,56.43
2018-12-29T08:14:14.825Z,58.30
2018-12-29T08:16:47.627Z,63.40
2018-12-29T08:19:20.153Z,56.47
2018-12-29T08:21:53.849Z,55.73
2018-12-29T08:24:27.177Z,61.50
2018-12-29T08:27:00.065Z,59.47
2018-12-29T08:29:33.241Z,59.33
2018-12-29T08:32:06.125Z,55.17
2018-12-29T08:34:39.163Z,60.07
2018-12-29T08:37:15.885Z,57.67
2018-12-29T08:39:49.152Z,58.67
2018-12-29T08:42:21.973Z,53.60
2018-12-29T08:44:55.141Z,53.83
2018-12-29T08:47:28.603Z,49.07
2018-12-29T08:50:02.122Z,50.63
2018-12-29T08:52:34.913Z,55.17
2018-12-29T08:55:11.802Z,60.97
2018-12-29T08:57:44.814Z,53.87
2018-12-29T09:00:17.849Z,57.97
2018-12-29T09:02:54.318Z,52.90
2018-12-29T09:05:27.271Z,59.40
2018-12-29T09:08:00.057Z,51.93
2018-12-29T09:10:33.163Z,57.97
2018-12-29T09:13:05.780Z,57.97
2018-12-29T09:15:39.293Z,57.00
2018-12-29T09:18:12.292Z,57.90
2018-12-29T09:20:46.703Z,59.60
2018-12-29T09:23:19.508Z,60.13
2018-12-29T09:25:52.428Z,52.13
2018-12-29T09:28:25.395Z,57.33
2018-12-29T09:30:58.600Z,57.90
2018-12-29T09:33:31.301Z,54.90
2018-12-29T09:36:04.769Z,59.90
2018-12-29T09:38:38.014Z,59.93
2018-12-29T09:41:10.890Z,50.87
2018-12-29T09:43:44.139Z,57.70
2018-12-29T09:46:17.273Z,59.33
2018-12-29T09:48:50.714Z,57.47
2018-12-29T09:51:23.047Z,56.30
2018-12-29T09:53:56.379Z,53.97
2018-12-29T09:56:28.980Z,58.87
2018-12-29T09:59:01.917Z,61.30
2018-12-29T10:01:34.321Z,64.87
2018-12-29T10:04:07.641Z,61.77
2018-12-29T10:06:41.978Z,57.37
2018-12-29T10:09:15.338Z,61.87
2018-12-29T10:11:48.484Z,61.47
2018-12-29T10:14:21.434Z,65.70
2018-12-29T10:16:54.841Z,70.33
2018-12-29T10:19:27.485Z,57.37
2018-12-29T10:22:01.120Z,61.30
2018-12-29T10:24:33.609Z,67.67
2018-12-29T10:27:06.844Z,66.47
2018-12-29T10:29:41.816Z,66.70
2018-12-29T10:32:14.193Z,67.67
2018-12-29T10:34:46.629Z,66.27
2018-12-29T10:37:19.990Z,73.00
2018-12-29T10:39:57.341Z,49.33
2018-12-29T10:42:30.767Z,69.43
2018-12-29T10:45:03.177Z,71.90
2018-12-29T10:47:37.233Z,62.17
2018-12-29T10:50:13.549Z,67.57
2018-12-29T10:52:52.466Z,58.57
2018-12-29T10:55:25.817Z,66.63
2018-12-29T10:58:07.814Z,69.00
2018-12-29T11:00:40.717Z,70.67
2018-12-29T11:03:23.029Z,70.37
2018-12-29T11:05:56.151Z,69.87
2018-12-29T11:08:30.294Z,60.73
2018-12-29T11:11:03.137Z,70.00
2018-12-29T11:13:41.054Z,62.23
2018-12-29T11:16:23.687Z,67.30
2018-12-29T11:18:59.285Z,52.93
2018-12-29T11:21:39.193Z,59.83
2018-12-29T11:24:13.910Z,60.43
2018-12-29T11:26:47.224Z,65.37
2018-12-29T11:29:27.339Z,67.17
2018-12-29T11:45:20.013Z,63.97
2018-12-29T11:48:53.559Z,55.50
2018-12-29T11:51:32.844Z,61.60
2018-12-29T11:54:05.893Z,60.70
2018-12-29T11:56:54.846Z,60.17
2018-12-29T11:59:40.978Z,59.10
2018-12-29T12:02:33.995Z,57.63
2018-12-29T12:08:02.823Z,55.57
2018-12-29T12:10:48.938Z,43.47
2018-12-29T12:13:57.746Z,51.00
2018-12-29T12:19:59.774Z,55.10
2018-12-29T12:26:11.859Z,51.80
2018-12-29T12:29:04.715Z,53.93
2018-12-29T12:31:38.943Z,48.07
2018-12-29T12:34:41.924Z,50.87
2018-12-29T12:40:22.413Z,52.60
2018-12-29T12:43:30.827Z,55.27
2018-12-29T12:49:30.114Z,47.10
2018-12-29T12:52:13.740Z,48.37
2018-12-29T12:58:01.260Z,48.47
2018-12-29T13:03:32.335Z,47.97
2018-12-29T13:06:14.646Z,45.80
2018-12-29T13:16:06.149Z,48.27
2018-12-29T13:18:57.177Z,43.00
2018-12-29T13:21:51.136Z,45.00
2018-12-29T13:24:50.045Z,44.13
2018-12-29T13:27:38.442Z,39.87
2018-12-29T13:30:15.428Z,48.03
2018-12-29T13:35:38.878Z,40.53
2018-12-29T13:41:45.374Z,43.17
2018-12-29T13:47:06.101Z,43.47
2018-12-29T13:49:50.999Z,43.67
2018-12-29T13:52:41.819Z,39.57
2018-12-29T13:55:31.618Z,35.80
2018-12-29T13:58:10.217Z,38.03
2018-12-29T14:00:50.204Z,37.07
2018-12-29T14:03:46.138Z,36.23
2018-12-29T14:06:25.254Z,38.10
2018-12-29T14:09:09.144Z,37.33
2018-12-29T14:14:33.480Z,35.57
2018-12-29T14:17:40.701Z,28.80
2018-12-29T14:20:19.601Z,33.00
2018-12-29T14:23:12.863Z,31.17
2018-12-29T14:25:50.956Z,32.60
2018-12-29T14:28:24.132Z,30.63
2018-12-29T14:30:57.009Z,32.67
2018-12-29T14:33:30.037Z,34.23
2018-12-29T14:36:02.765Z,33.60
2018-12-29T14:38:36.725Z,33.93
2018-12-29T14:41:10.282Z,32.97
2018-12-29T14:43:55.515Z,31.13
2018-12-29T14:46:28.733Z,27.77
2018-12-29T14:49:01.507Z,30.87
2018-12-29T14:51:34.945Z,31.77
2018-12-29T14:54:07.805Z,32.67
2018-12-29T14:56:40.926Z,36.07
2018-12-29T14:59:18.973Z,26.30
2018-12-29T15:01:56.901Z,20.80
2018-12-29T15:04:34.169Z,26.77
2018-12-29T15:07:07.100Z,30.70
2018-12-29T15:09:39.968Z,35.33
2018-12-29T15:12:14.407Z,29.10
2018-12-29T15:14:47.229Z,29.23
2018-12-29T15:17:26.534Z,28.90
2018-12-29T15:20:00.166Z,30.47
2018-12-29T15:22:34.948Z,28.77
2018-12-29T15:25:07.765Z,25.67
2018-12-29T15:27:41.395Z,25.23
2018-12-29T15:30:15.646Z,23.77
2018-12-29T15:32:51.733Z,21.50
2018-12-29T15:35:24.922Z,21.07
2018-12-29T15:37:57.942Z,21.97
2018-12-29T15:40:32.354Z,21.43
2018-12-29T15:45:44.529Z,22.77
2018-12-29T15:48:17.589Z,21.70
2018-12-29T15:50:50.605Z,22.00
2018-12-29T15:53:26.290Z,23.27
2018-12-29T15:56:01.485Z,21.33
2018-12-29T15:58:37.985Z,20.63
2018-12-29T16:01:14.269Z,20.03
2018-12-29T16:03:49.297Z,22.67
2018-12-29T16:06:23.765Z,22.27
2018-12-29T16:09:04.829Z,23.87
2018-12-29T16:11:40.385Z,20.73
2018-12-29T16:14:15.789Z,20.10
2018-12-29T16:16:55.125Z,18.87
2018-12-29T16:24:37.169Z,17.37
2018-12-29T16:27:16.512Z,20.97
2018-12-29T16:29:53.353Z,18.03
2018-12-29T16:32:25.833Z,19.10
2018-12-29T16:35:10.578Z,20.00
2018-12-29T16:37:52.533Z,20.77
2018-12-29T16:40:33.805Z,16.27
2018-12-29T16:43:28.776Z,22.10
2018-12-29T16:46:12.789Z,21.97
2018-12-29T16:48:51.254Z,15.57
2018-12-29T16:51:27.867Z,19.67
2018-12-29T16:54:05.773Z,19.37
2018-12-29T16:56:38.786Z,23.47
2018-12-29T16:59:12.459Z,21.87
2018-12-29T17:01:46.710Z,22.77
2018-12-29T17:04:19.505Z,24.93
2018-12-29T17:06:52.587Z,27.00
2018-12-29T17:09:25.549Z,24.00
2018-12-29T17:11:59.300Z,24.70
2018-12-29T17:14:33.233Z,25.77
2018-12-29T17:17:07.255Z,26.23
2018-12-29T17:19:43.316Z,25.83
2018-12-29T17:22:19.508Z,26.47
2018-12-29T17:24:55.367Z,24.90
2018-12-29T17:30:32.049Z,26.53
2018-12-29T17:33:25.877Z,30.10
2018-12-29T17:36:17.511Z,16.50
2018-12-29T17:38:55.385Z,24.90
2018-12-29T17:41:28.576Z,30.07
2018-12-29T17:44:01.187Z,31.57
2018-12-29T17:46:43.257Z,32.80
2018-12-29T17:51:57.258Z,35.07
2018-12-29T17:54:29.894Z,30.37
2018-12-29T17:57:06.734Z,33.23
2018-12-29T17:59:39.633Z,35.77
2018-12-29T18:02:12.518Z,38.10
2018-12-29T18:04:45.345Z,26.43
2018-12-29T18:07:18.345Z,30.80
2018-12-29T18:09:57.164Z,38.80
2018-12-29T18:12:27.429Z,33.17
2018-12-29T18:15:00.292Z,31.27
2018-12-29T18:17:33.633Z,38.67
2018-12-29T18:20:06.773Z,36.47
2018-12-29T18:22:43.844Z,37.70
2018-12-29T18:25:16.585Z,33.90
2018-12-29T18:27:50.152Z,41.70
2018-12-29T18:30:23.681Z,32.20
2018-12-29T18:32:58.310Z,33.47
2018-12-29T18:35:32.529Z,26.30
2018-12-29T18:38:09.749Z,38.43
2018-12-29T18:40:49.491Z,28.30
2018-12-29T18:43:25.634Z,35.53
2018-12-29T18:46:05.502Z,34.07
2018-12-29T18:48:38.597Z,28.37
2018-12-29T18:51:12.497Z,35.77
2018-12-29T18:53:45.789Z,32.90
2018-12-29T18:56:18.719Z,33.93
2018-12-29T18:59:08.726Z,28.33
2018-12-29T19:01:57.822Z,31.27
2018-12-29T19:04:33.749Z,27.07
2018-12-29T19:07:19.957Z,32.60
2018-12-29T19:09:53.738Z,32.67
2018-12-29T19:12:27.062Z,28.43
2018-12-29T19:15:07.085Z,30.60
2018-12-29T19:17:45.893Z,24.17
2018-12-29T19:20:20.346Z,30.27
2018-12-29T19:23:11.636Z,17.57
2018-12-29T19:25:47.964Z,21.30
2018-12-29T19:28:21.046Z,23.20
2018-12-29T19:33:39.583Z,13.17
2018-12-29T19:36:12.753Z,19.73
2018-12-29T19:38:45.752Z,16.10
2018-12-29T19:41:23.704Z,19.60
2018-12-29T19:43:57.844Z,21.47
2018-12-29T19:46:31.801Z,15.53
2018-12-29T19:49:10.541Z,15.30
2018-12-29T19:52:02.608Z,14.10
2018-12-29T19:54:39.731Z,9.80
2018-12-29T19:57:15.644Z,8.93
2018-12-29T19:59:54.981Z,4.77
2018-12-29T20:05:43.818Z,5.43
2018-12-29T20:08:19.637Z,4.17
2018-12-29T20:10:54.598Z,4.07
2018-12-29T20:13:28.629Z,3.30
2018-12-29T20:16:03.497Z,4.50
2018-12-29T20:18:50.097Z,2.73
2018-12-29T20:21:24.129Z,3.90
2018-12-29T20:23:56.998Z,3.60
2018-12-29T20:26:29.801Z,3.47
2018-12-29T20:29:02.958Z,3.13
2018-12-29T20:31:36.701Z,3.37
2018-12-29T20:34:17.702Z,3.33
2018-12-29T20:36:53.149Z,3.87
2018-12-29T20:42:34.378Z,5.07
2018-12-29T20:48:46.680Z,4.70
2018-12-29T20:51:19.717Z,4.10
2018-12-29T20:53:58.187Z,4.80
2018-12-29T20:56:31.898Z,4.13
2018-12-29T20:59:05.874Z,6.63
2018-12-29T21:01:38.717Z,4.47
2018-12-29T21:04:11.882Z,5.70
2018-12-29T21:06:45.624Z,5.50
2018-12-29T21:09:18.748Z,6.03
2018-12-29T21:11:53.203Z,4.50
2018-12-29T21:14:30.861Z,5.23
2018-12-29T21:17:04.541Z,6.70
2018-12-29T21:19:39.073Z,4.97
2018-12-29T21:22:12.925Z,4.43
2018-12-29T21:24:46.605Z,4.67
2018-12-29T21:27:21.225Z,5.20
2018-12-29T21:30:03.283Z,6.23
2018-12-29T21:32:46.830Z,6.50
2018-12-29T21:53:32.963Z,5.23
2018-12-29T21:56:06.797Z,6.00
2018-12-29T21:58:45.425Z,5.97
2018-12-29T22:01:18.782Z,7.47
2018-12-29T22:03:52.012Z,5.37
2018-12-29T22:06:24.858Z,5.73
2018-12-29T22:08:57.564Z,5.90
2018-12-29T22:11:30.594Z,5.07
2018-12-29T22:14:03.585Z,4.07
2018-12-29T22:16:36.504Z,5.70
2018-12-29T22:19:09.719Z,4.00
2018-12-29T22:21:42.777Z,4.17
2018-12-29T22:24:16.884Z,3.67
2018-12-29T22:26:51.562Z,6.10
2018-12-29T22:29:24.997Z,5.33
2018-12-29T22:31:58.297Z,6.07
2018-12-29T22:34:30.897Z,3.03
2018-12-29T22:37:08.013Z,4.57
2018-12-29T22:39:41.098Z,8.40
2018-12-29T22:42:14.474Z,5.47
2018-12-29T22:44:47.266Z,3.90
2018-12-29T22:47:20.273Z,5.53
2018-12-29T22:49:53.498Z,6.63
2018-12-29T22:52:27.508Z,5.73
2018-12-29T22:55:02.633Z,5.70
2018-12-29T22:57:36.255Z,6.40
2018-12-29T23:00:14.493Z,3.80
2018-12-29T23:02:47.333Z,5.47
2018-12-29T23:05:20.153Z,4.90
2018-12-29T23:07:53.093Z,4.70
2018-12-29T23:10:26.545Z,4.37
2018-12-29T23:12:59.097Z,6.20
2018-12-29T23:15:32.118Z,6.13
2018-12-29T23:18:05.578Z,6.87
2018-12-29T23:20:38.986Z,5.80
2018-12-29T23:23:12.214Z,5.03
2018-12-29T23:25:45.857Z,8.43
2018-12-29T23:28:18.393Z,5.60
2018-12-29T23:30:51.849Z,5.80
2018-12-29T23:33:24.549Z,4.53
2018-12-29T23:35:57.489Z,6.93
2018-12-29T23:38:30.493Z,5.90
2018-12-29T23:41:03.897Z,4.83
2018-12-29T23:43:37.129Z,5.40
2018-12-29T23:46:10.051Z,6.97
2018-12-29T23:48:42.869Z,8.00
2018-12-29T23:51:16.409Z,6.77
